createdAt,value
2018-08-06T00:00:26.237Z,100907.41
2018-08-06T00:02:54.298Z,100908.73
2018-08-06T00:05:22.384Z,100906.58
2018-08-06T00:07:50.471Z,100911.14
2018-08-06T00:10:19.994Z,100910.85
2018-08-06T00:12:48.041Z,100908.68
2018-08-06T00:15:16.543Z,100908.13
2018-08-06T00:17:44.643Z,100907.08
2018-08-06T00:20:13.647Z,100912.14
2018-08-06T00:22:42.144Z,100907.77
2018-08-06T00:25:11.335Z,100907.99
2018-08-06T00:27:39.720Z,100905.02
2018-08-06T00:30:09.579Z,100906.34
2018-08-06T00:32:38.388Z,100904.44
2018-08-06T00:35:06.681Z,100907.98
2018-08-06T00:37:34.790Z,100900.20
2018-08-06T00:40:02.832Z,100909.84
2018-08-06T00:42:30.938Z,100907.06
2018-08-06T00:44:58.988Z,100905.13
2018-08-06T00:47:27.076Z,100901.31
2018-08-06T00:49:55.174Z,100895.58
2018-08-06T00:52:23.231Z,100895.52
2018-08-06T00:54:51.282Z,100892.48
2018-08-06T00:57:19.367Z,100889.22
2018-08-06T00:59:47.481Z,100891.63
2018-08-06T01:02:15.531Z,100884.97
2018-08-06T01:04:43.590Z,100885.24
2018-08-06T01:07:11.723Z,100888.42
2018-08-06T01:09:39.820Z,100890.05
2018-08-06T01:12:08.804Z,100891.09
2018-08-06T01:14:36.887Z,100887.08
2018-08-06T01:17:04.987Z,100887.56
2018-08-06T01:19:33.038Z,100883.92
2018-08-06T01:22:01.102Z,100884.13
2018-08-06T01:24:29.195Z,100884.22
2018-08-06T01:26:57.263Z,100881.73
2018-08-06T01:29:25.322Z,100880.01
2018-08-06T01:31:53.392Z,100877.84
2018-08-06T01:34:21.455Z,100873.14
2018-08-06T01:36:49.510Z,100879.09
2018-08-06T01:39:17.571Z,100874.77
2018-08-06T01:41:45.619Z,100872.27
2018-08-06T01:44:13.662Z,100870.28
2018-08-06T01:46:41.851Z,100866.16
2018-08-06T01:49:09.908Z,100868.39
2018-08-06T01:51:37.969Z,100862.84
2018-08-06T01:54:06.036Z,100864.97
2018-08-06T01:56:34.555Z,100868.48
2018-08-06T01:59:02.611Z,100869.31
2018-08-06T02:01:30.667Z,100863.17
2018-08-06T02:03:58.712Z,100856.96
2018-08-06T02:06:26.824Z,100853.44
2018-08-06T02:08:54.942Z,100863.63
2018-08-06T02:11:23.028Z,100859.50
2018-08-06T02:13:51.101Z,100855.12
2018-08-06T02:16:19.245Z,100857.95
2018-08-06T02:18:47.341Z,100854.52
2018-08-06T02:21:15.395Z,100855.05
2018-08-06T02:23:43.452Z,100859.66
2018-08-06T02:26:11.513Z,100849.90
2018-08-06T02:28:39.622Z,100842.23
2018-08-06T02:31:07.671Z,100835.72
2018-08-06T02:33:35.728Z,100843.21
2018-08-06T02:36:03.771Z,100834.66
2018-08-06T02:38:31.831Z,100840.90
2018-08-06T02:40:59.871Z,100846.56
2018-08-06T02:43:27.943Z,100832.05
2018-08-06T02:45:55.995Z,100835.59
2018-08-06T02:48:24.079Z,100843.09
2018-08-06T02:50:52.130Z,100840.08
2018-08-06T02:53:20.263Z,100838.11
2018-08-06T02:55:48.347Z,100842.19
2018-08-06T02:58:16.425Z,100836.61
2018-08-06T03:00:44.531Z,100839.59
2018-08-06T03:03:12.578Z,100830.37
2018-08-06T03:05:40.639Z,100831.87
2018-08-06T03:08:08.719Z,100835.87
2018-08-06T03:10:36.776Z,100833.02
2018-08-06T03:13:04.867Z,100829.91
2018-08-06T03:15:32.988Z,100831.27
2018-08-06T03:18:01.038Z,100831.13
2018-08-06T03:20:29.202Z,100833.27
2018-08-06T03:22:57.238Z,100828.00
2018-08-06T03:25:25.278Z,100832.55
2018-08-06T03:27:53.346Z,100834.91
2018-08-06T03:30:21.398Z,100831.31
2018-08-06T03:32:49.460Z,100833.28
2018-08-06T03:35:17.558Z,100836.53
2018-08-06T03:37:45.610Z,100824.86
2018-08-06T03:40:13.757Z,100820.95
2018-08-06T03:42:41.790Z,100833.02
2018-08-06T03:45:11.234Z,100832.97
2018-08-06T03:47:39.720Z,100816.37
2018-08-06T03:50:08.751Z,100828.69
2018-08-06T03:52:36.873Z,100828.23
2018-08-06T03:55:05.843Z,100831.66
2018-08-06T03:57:33.901Z,100827.06
2018-08-06T04:00:01.936Z,100829.47
2018-08-06T04:02:30.023Z,100825.34
2018-08-06T04:04:58.121Z,100830.50
2018-08-06T04:07:26.257Z,100830.98
2018-08-06T04:09:54.315Z,100830.58
2018-08-06T04:12:22.382Z,100829.17
2018-08-06T04:14:50.520Z,100825.34
2018-08-06T04:17:18.641Z,100820.64
2018-08-06T04:19:46.786Z,100823.92
2018-08-06T04:22:14.795Z,100823.00
2018-08-06T04:24:42.880Z,100828.02
2018-08-06T04:27:10.946Z,100821.94
2018-08-06T04:29:39.064Z,100829.97
2018-08-06T04:32:07.140Z,100832.48
2018-08-06T04:34:35.215Z,100830.08
2018-08-06T04:37:03.270Z,100832.09
2018-08-06T04:39:31.342Z,100833.81
2018-08-06T04:41:59.508Z,100834.58
2018-08-06T04:44:27.654Z,100830.93
2018-08-06T04:46:55.767Z,100834.41
2018-08-06T04:49:23.834Z,100840.02
2018-08-06T04:51:51.895Z,100845.08
2018-08-06T04:54:19.992Z,100846.55
2018-08-06T04:56:48.075Z,100849.31
2018-08-06T04:59:16.156Z,100855.73
2018-08-06T05:01:44.222Z,100851.72
2018-08-06T05:04:12.286Z,100854.97
2018-08-06T05:06:40.363Z,100854.58
2018-08-06T05:09:10.395Z,100856.05
2018-08-06T05:11:38.966Z,100852.66
2018-08-06T05:14:07.032Z,100852.56
2018-08-06T05:16:35.088Z,100852.15
2018-08-06T05:19:03.166Z,100854.59
2018-08-06T05:21:31.271Z,100849.33
2018-08-06T05:24:00.053Z,100850.80
2018-08-06T05:26:29.132Z,100853.83
2018-08-06T05:28:57.253Z,100858.32
2018-08-06T05:31:26.342Z,100852.05
2018-08-06T05:33:55.013Z,100861.19
2018-08-06T05:36:23.591Z,100852.30
2018-08-06T05:38:53.012Z,100856.30
2018-08-06T05:41:21.985Z,100862.10
2018-08-06T05:43:50.208Z,100849.69
2018-08-06T05:46:18.291Z,100862.38
2018-08-06T05:48:46.425Z,100863.59
2018-08-06T05:51:14.484Z,100862.53
2018-08-06T05:53:42.553Z,100866.74
2018-08-06T05:56:11.320Z,100867.40
2018-08-06T05:58:40.045Z,100864.16
2018-08-06T06:01:08.130Z,100859.12
2018-08-06T06:03:36.241Z,100858.38
2018-08-06T06:06:04.797Z,100865.52
2018-08-06T06:08:32.872Z,100859.50
2018-08-06T06:11:00.951Z,100864.23
2018-08-06T06:13:29.081Z,100867.84
2018-08-06T06:15:57.153Z,100871.97
2018-08-06T06:18:25.290Z,100869.31
2018-08-06T06:20:53.472Z,100856.50
2018-08-06T06:23:21.519Z,100854.73
2018-08-06T06:25:49.629Z,100859.48
2018-08-06T06:28:17.656Z,100847.28
2018-08-06T06:30:45.723Z,100858.53
2018-08-06T06:33:13.778Z,100855.01
2018-08-06T06:35:41.880Z,100850.36
2018-08-06T06:38:09.931Z,100853.41
2018-08-06T06:40:38.075Z,100850.52
2018-08-06T06:43:06.119Z,100847.53
2018-08-06T06:45:34.234Z,100845.70
2018-08-06T06:48:02.290Z,100846.85
2018-08-06T06:50:30.334Z,100840.06
2018-08-06T06:52:58.405Z,100835.16
2018-08-06T06:55:26.493Z,100841.75
2018-08-06T06:57:54.665Z,100835.22
2018-08-06T07:00:22.752Z,100831.16
2018-08-06T07:02:50.895Z,100827.11
2018-08-06T07:05:18.970Z,100830.15
2018-08-06T07:07:47.016Z,100831.53
2018-08-06T07:10:15.171Z,100821.79
2018-08-06T07:12:43.282Z,100820.45
2018-08-06T07:15:13.906Z,100818.59
2018-08-06T07:17:44.211Z,100818.62
2018-08-06T07:20:12.428Z,100820.88
2018-08-06T07:22:40.876Z,100816.54
2018-08-06T07:25:10.487Z,100812.43
2018-08-06T07:27:39.268Z,100807.25
2018-08-06T07:30:10.025Z,100813.02
2018-08-06T07:32:38.175Z,100809.73
2018-08-06T07:35:07.517Z,100808.95
2018-08-06T07:37:35.970Z,100801.86
2018-08-06T07:40:05.318Z,100805.14
2018-08-06T07:42:33.339Z,100801.88
2018-08-06T07:45:01.439Z,100806.23
2018-08-06T07:47:29.493Z,100794.48
2018-08-06T07:49:57.662Z,100793.92
2018-08-06T07:52:25.791Z,100789.29
2018-08-06T07:54:53.851Z,100786.27
2018-08-06T07:57:21.941Z,100790.89
2018-08-06T07:59:50.209Z,100792.53
2018-08-06T08:02:18.242Z,100785.69
2018-08-06T08:04:46.423Z,100782.09
2018-08-06T08:07:14.712Z,100778.78
2018-08-06T08:09:42.790Z,100772.97
2018-08-06T08:12:11.243Z,100772.72
2018-08-06T08:14:39.441Z,100771.80
2018-08-06T08:17:07.565Z,100773.95
2018-08-06T08:19:35.858Z,100771.48
2018-08-06T08:22:03.976Z,100767.61
2018-08-06T08:24:32.237Z,100762.34
2018-08-06T08:27:00.665Z,100764.23
2018-08-06T08:29:28.880Z,100755.19
2018-08-06T08:31:57.068Z,100762.82
2018-08-06T08:34:25.251Z,100753.50
2018-08-06T08:36:53.448Z,100758.59
2018-08-06T08:39:21.638Z,100751.91
2018-08-06T08:41:49.820Z,100750.23
2018-08-06T08:44:17.991Z,100740.89
2018-08-06T08:46:46.188Z,100745.52
2018-08-06T08:49:14.729Z,100742.13
2018-08-06T08:51:42.914Z,100740.17
2018-08-06T08:54:11.096Z,100736.31
2018-08-06T08:56:39.358Z,100733.14
2018-08-06T08:59:09.781Z,100721.95
2018-08-06T09:01:38.000Z,100722.78
2018-08-06T09:04:13.795Z,100719.97
2018-08-06T09:06:42.008Z,100715.40
2018-08-06T09:09:12.637Z,100713.38
2018-08-06T09:11:41.212Z,100702.89
2018-08-06T09:14:09.593Z,100699.29
2018-08-06T09:17:29.008Z,100699.27
2018-08-06T09:20:04.091Z,100697.75
2018-08-06T09:22:32.287Z,100679.23
2018-08-06T09:25:00.516Z,100681.03
2018-08-06T09:27:28.752Z,100680.27
2018-08-06T09:29:59.498Z,100676.72
2018-08-06T09:32:39.311Z,100678.94
2018-08-06T09:35:07.573Z,100674.13
2018-08-06T09:37:43.826Z,100671.52
2018-08-06T09:40:23.941Z,100679.45
2018-08-06T09:45:36.368Z,100667.78
2018-08-06T09:48:04.698Z,100666.18
2018-08-06T09:50:32.884Z,100666.96
2018-08-06T09:53:07.230Z,100664.56
2018-08-06T09:55:37.316Z,100656.23
2018-08-06T09:58:06.553Z,100656.03
2018-08-06T10:00:41.963Z,100646.17
2018-08-06T10:03:10.165Z,100650.21
2018-08-06T10:05:38.546Z,100641.52
2018-08-06T10:08:06.798Z,100639.45
2018-08-06T10:10:37.115Z,100632.35
2018-08-06T10:13:06.976Z,100630.88
2018-08-06T10:15:35.256Z,100627.17
2018-08-06T10:18:10.519Z,100620.45
2018-08-06T10:21:02.722Z,100621.17
2018-08-06T10:23:44.088Z,100619.63
2018-08-06T10:26:33.701Z,100609.09
2018-08-06T10:29:01.964Z,100603.67
2018-08-06T10:31:37.230Z,100600.54
2018-08-06T10:34:16.912Z,100594.38
2018-08-06T10:37:02.895Z,100595.06
2018-08-06T10:39:31.194Z,100588.34
2018-08-06T10:42:03.050Z,100584.79
2018-08-06T10:44:31.324Z,100576.80
2018-08-06T10:47:21.602Z,100571.99
2018-08-06T10:49:51.005Z,100575.39
2018-08-06T10:52:19.311Z,100568.83
2018-08-06T10:54:52.844Z,100565.24
2018-08-06T10:57:21.223Z,100558.94
2018-08-06T10:59:49.553Z,100558.98
2018-08-06T11:02:25.684Z,100560.98
2018-08-06T11:04:56.279Z,100554.59
2018-08-06T11:07:24.649Z,100542.03
2018-08-06T11:09:53.351Z,100543.98
2018-08-06T11:12:21.631Z,100537.95
2018-08-06T11:14:58.199Z,100548.97
2018-08-06T11:17:43.438Z,100537.61
2018-08-06T11:20:14.832Z,100534.28
2018-08-06T11:22:46.399Z,100533.39
2018-08-06T11:25:25.327Z,100524.92
2018-08-06T11:27:53.639Z,100522.00
2018-08-06T11:30:22.768Z,100512.33
2018-08-06T11:32:51.487Z,100514.41
2018-08-06T11:35:19.889Z,100513.50
2018-08-06T11:37:48.170Z,100503.49
2018-08-06T11:40:17.118Z,100502.05
2018-08-06T11:42:46.138Z,100498.50
2018-08-06T11:45:18.076Z,100497.00
2018-08-06T11:47:46.370Z,100499.14
2018-08-06T11:50:14.738Z,100493.56
2018-08-06T11:52:43.313Z,100490.93
2018-08-06T11:55:11.639Z,100487.13
2018-08-06T11:58:41.212Z,100480.23
2018-08-06T12:01:09.546Z,100470.89
2018-08-06T12:03:47.720Z,100469.33
2018-08-06T12:06:23.346Z,100463.70
2018-08-06T12:08:52.270Z,100460.36
2018-08-06T12:11:40.625Z,100460.72
2018-08-06T12:14:24.127Z,100453.57
2018-08-06T12:19:40.038Z,100449.37
2018-08-06T12:22:16.533Z,100452.70
2018-08-06T12:27:18.851Z,100445.12
2018-08-06T12:34:59.099Z,100434.33
2018-08-06T12:46:05.196Z,100427.86
2018-08-06T12:48:34.090Z,100422.38
2018-08-06T13:04:45.151Z,100404.66
2018-08-06T13:07:13.308Z,100393.60
2018-08-06T13:09:45.344Z,100397.20
2018-08-06T13:12:24.098Z,100390.73
2018-08-06T13:14:53.618Z,100389.67
2018-08-06T13:17:21.955Z,100380.42
2018-08-06T13:20:09.610Z,100379.64
2018-08-06T13:23:18.701Z,100379.75
2018-08-06T13:29:14.615Z,100371.17
2018-08-06T13:50:30.805Z,100356.19
2018-08-06T13:52:59.207Z,100349.14
2018-08-06T13:55:30.991Z,100341.02
2018-08-06T13:57:59.236Z,100333.98
2018-08-06T14:00:32.372Z,100334.70
2018-08-06T14:03:28.984Z,100332.59
2018-08-06T14:05:58.813Z,100332.70
2018-08-06T14:08:27.104Z,100332.03
2018-08-06T14:10:55.425Z,100325.19
2018-08-06T14:13:23.765Z,100320.00
2018-08-06T14:16:32.048Z,100312.00
2018-08-06T14:21:54.092Z,100299.02
2018-08-06T14:24:23.707Z,100300.58
2018-08-06T14:27:02.581Z,100301.03
2018-08-06T14:29:31.543Z,100298.54
2018-08-06T14:31:59.832Z,100296.03
2018-08-06T14:34:28.116Z,100289.84
2018-08-06T14:36:57.050Z,100287.05
2018-08-06T14:39:28.175Z,100285.29
2018-08-06T14:41:56.498Z,100278.73
2018-08-06T14:44:24.786Z,100271.73
2018-08-06T15:03:00.349Z,100260.73
2018-08-06T15:08:32.661Z,100244.86
2018-08-06T15:20:23.872Z,100239.69
2018-08-06T15:28:12.621Z,100237.09
2018-08-06T15:37:28.793Z,100233.90
2018-08-06T15:53:43.201Z,100208.12
2018-08-06T15:56:18.259Z,100204.03
2018-08-06T15:58:46.530Z,100196.72
2018-08-06T16:01:14.849Z,100199.24
2018-08-06T16:03:43.285Z,100188.73
2018-08-06T16:06:11.482Z,100194.39
2018-08-06T16:08:40.393Z,100181.54
2018-08-06T16:11:09.601Z,100182.86
2018-08-06T16:13:37.825Z,100184.74
2018-08-06T16:16:08.618Z,100181.07
2018-08-06T16:18:36.813Z,100176.27
2018-08-06T16:21:05.052Z,100168.77
2018-08-06T16:23:40.686Z,100174.09
2018-08-06T16:29:02.405Z,100167.35
2018-08-06T16:31:34.742Z,100166.27
2018-08-06T16:34:02.929Z,100158.44
2018-08-06T16:36:31.145Z,100162.34
2018-08-06T16:39:11.479Z,100158.37
2018-08-06T16:41:39.631Z,100155.28
2018-08-06T16:45:01.400Z,100155.55
2018-08-06T17:06:53.338Z,100143.88
2018-08-06T18:00:31.437Z,100139.77
2018-08-06T18:03:01.172Z,100138.92
2018-08-06T18:05:32.857Z,100137.92
2018-08-06T18:08:02.559Z,100136.10
2018-08-06T18:10:33.256Z,100143.08
2018-08-06T18:13:06.211Z,100143.11
2018-08-06T18:15:35.454Z,100149.94
2018-08-06T18:18:04.782Z,100141.05
2018-08-06T18:20:33.131Z,100145.58
2018-08-06T18:23:04.386Z,100150.98
2018-08-06T18:25:34.490Z,100149.03
2018-08-06T18:28:03.195Z,100153.15
2018-08-06T18:30:33.923Z,100154.27
2018-08-06T18:33:03.563Z,100152.22
2018-08-06T18:35:34.246Z,100151.58
2018-08-06T18:38:02.554Z,100158.95
2018-08-06T18:40:31.015Z,100156.86
2018-08-06T18:43:00.707Z,100155.98
2018-08-06T18:45:32.143Z,100159.27
2018-08-06T18:48:02.839Z,100163.53
2018-08-06T18:50:31.004Z,100156.30
2018-08-06T18:52:59.382Z,100155.18
2018-08-06T18:55:27.512Z,100161.24
2018-08-06T18:57:55.695Z,100167.80
2018-08-06T19:00:25.350Z,100167.14
2018-08-06T19:02:53.765Z,100174.25
2018-08-06T19:05:22.525Z,100169.00
2018-08-06T19:07:50.688Z,100174.32
2018-08-06T19:10:18.795Z,100176.34
2018-08-06T19:12:52.260Z,100169.68
2018-08-06T19:15:20.508Z,100167.95
2018-08-06T19:17:53.978Z,100174.23
2018-08-06T19:20:22.235Z,100171.09
2018-08-06T19:22:50.425Z,100181.69
2018-08-06T19:25:23.786Z,100174.12
2018-08-06T19:27:52.035Z,100178.89
2018-08-06T19:30:20.329Z,100178.30
2018-08-06T19:32:54.571Z,100185.63
2018-08-06T19:35:23.044Z,100185.56
2018-08-06T19:37:51.917Z,100182.82
2018-08-06T19:40:20.327Z,100185.84
2018-08-06T19:42:53.895Z,100184.30
2018-08-06T19:45:22.175Z,100179.12
2018-08-06T19:47:50.397Z,100185.67
2018-08-06T19:50:27.603Z,100180.00
2018-08-06T19:52:56.188Z,100178.51
2018-08-06T19:55:29.731Z,100186.43
2018-08-06T19:57:58.286Z,100184.50
2018-08-06T20:00:32.674Z,100176.66
2018-08-06T20:03:01.272Z,100181.92
2018-08-06T20:05:49.293Z,100184.75
2018-08-06T20:08:17.527Z,100183.80
2018-08-06T20:10:49.152Z,100182.38
2018-08-06T20:13:17.292Z,100188.59
2018-08-06T20:15:45.472Z,100188.55
2018-08-06T20:18:13.758Z,100197.30
2018-08-06T20:20:42.032Z,100195.05
2018-08-06T20:23:10.181Z,100197.47
2018-08-06T20:25:38.298Z,100189.58
2018-08-06T20:28:06.406Z,100188.15
2018-08-06T20:30:34.539Z,100190.20
2018-08-06T20:33:02.784Z,100193.13
2018-08-06T20:35:31.099Z,100196.19
2018-08-06T20:37:59.251Z,100190.14
2018-08-06T20:40:27.463Z,100189.82
2018-08-06T20:42:55.541Z,100180.75
2018-08-06T20:45:23.704Z,100185.56
2018-08-06T20:47:51.915Z,100193.73
2018-08-06T20:50:21.576Z,100194.86
2018-08-06T20:52:50.996Z,100192.43
2018-08-06T20:55:19.115Z,100195.59
2018-08-06T20:57:47.627Z,100199.75
2018-08-06T21:00:18.174Z,100197.05
2018-08-06T21:02:47.080Z,100196.91
2018-08-06T21:05:17.132Z,100195.75
2018-08-06T21:10:36.128Z,100207.91
2018-08-06T21:13:10.223Z,100207.55
2018-08-06T21:15:43.831Z,100206.25
2018-08-06T21:18:11.952Z,100210.00
2018-08-06T21:20:40.115Z,100212.27
2018-08-06T21:23:08.261Z,100207.60
2018-08-06T21:25:36.852Z,100206.36
2018-08-06T21:28:05.154Z,100208.44
2018-08-06T21:30:35.551Z,100214.70
2018-08-06T21:33:04.164Z,100208.61
2018-08-06T21:35:32.703Z,100211.73
2018-08-06T21:38:01.241Z,100215.95
2018-08-06T21:40:29.448Z,100213.21
2018-08-06T21:42:58.262Z,100209.11
2018-08-06T21:45:26.400Z,100213.55
2018-08-06T21:47:54.523Z,100215.89
2018-08-06T21:50:22.723Z,100211.89
2018-08-06T21:52:52.059Z,100220.63
2018-08-06T21:55:23.957Z,100217.29
2018-08-06T21:57:53.308Z,100215.95
2018-08-06T22:00:41.209Z,100214.05
2018-08-06T22:03:17.939Z,100211.86
2018-08-06T22:05:47.867Z,100202.26
2018-08-06T22:08:16.369Z,100197.23
2018-08-06T22:10:45.432Z,100197.78
2018-08-06T22:13:13.580Z,100194.31
2018-08-06T22:15:41.853Z,100195.03
2018-08-06T22:18:11.656Z,100192.23
2018-08-06T22:20:39.766Z,100196.59
2018-08-06T22:23:08.322Z,100199.09
2018-08-06T22:25:36.424Z,100192.30
2018-08-06T22:28:04.996Z,100195.88
2018-08-06T22:30:33.036Z,100193.56
2018-08-06T22:33:01.160Z,100193.02
2018-08-06T22:35:29.234Z,100199.01
2018-08-06T22:37:57.304Z,100195.23
2018-08-06T22:40:25.356Z,100194.80
2018-08-06T22:42:53.412Z,100199.41
2018-08-06T22:45:21.507Z,100197.98
2018-08-06T22:47:49.569Z,100196.63
2018-08-06T22:50:17.634Z,100198.08
2018-08-06T22:52:45.712Z,100190.36
2018-08-06T22:55:13.799Z,100185.26
2018-08-06T22:57:42.363Z,100189.97
2018-08-06T23:00:15.247Z,100193.11
2018-08-06T23:02:43.523Z,100190.11
2018-08-06T23:05:12.832Z,100185.25
2018-08-06T23:07:40.934Z,100182.52
2018-08-06T23:10:12.015Z,100175.12
2018-08-06T23:12:40.296Z,100177.63
2018-08-06T23:15:10.826Z,100179.77
2018-08-06T23:17:38.935Z,100178.84
2018-08-06T23:20:07.783Z,100177.77
2018-08-06T23:22:35.959Z,100175.97
2018-08-06T23:25:04.324Z,100169.26
2018-08-06T23:27:32.474Z,100161.10
2018-08-06T23:30:00.535Z,100165.70
2018-08-06T23:32:28.612Z,100167.80
2018-08-06T23:34:56.691Z,100168.34
2018-08-06T23:37:24.767Z,100169.55
2018-08-06T23:39:52.998Z,100172.60
2018-08-06T23:42:21.056Z,100157.86
2018-08-06T23:44:49.106Z,100162.16
2018-08-06T23:47:17.183Z,100159.57
2018-08-06T23:49:45.247Z,100157.34
2018-08-06T23:52:13.319Z,100154.02
2018-08-06T23:54:41.366Z,100151.16
2018-08-06T23:57:09.444Z,100153.38
2018-08-06T23:59:37.483Z,100152.10
